sensor_id;sensor_type;location;lat;lon;timestamp;pressure;altitude;pressure_sealevel;temperature;humidity
82035;BME280;71599;49.892;18.914;2024-01-10T00:03:51;100474.53;;;-16.56;66.24
82035;BME280;71599;49.892;18.914;2024-01-10T00:08:53;100471.66;;;-16.62;65.96
82035;BME280;71599;49.892;18.914;2024-01-10T00:13:54;100469.88;;;-16.62;66.49
82035;BME280;71599;49.892;18.914;2024-01-10T00:18:55;100469.34;;;-16.65;66.57
82035;BME280;71599;49.892;18.914;2024-01-10T00:23:58;100465.19;;;-16.58;66.36
82035;BME280;71599;49.892;18.914;2024-01-10T00:28:59;100461.84;;;-16.51;65.90
82035;BME280;71599;49.892;18.914;2024-01-10T00:34:00;100463.47;;;-16.50;66.20
82035;BME280;71599;49.892;18.914;2024-01-10T00:39:02;100461.19;;;-16.53;66.22
82035;BME280;71599;49.892;18.914;2024-01-10T00:44:03;100460.03;;;-16.50;65.73
82035;BME280;71599;49.892;18.914;2024-01-10T00:49:04;100442.84;;;-16.53;65.65
82035;BME280;71599;49.892;18.914;2024-01-10T00:54:07;100434.31;;;-16.55;65.69
82035;BME280;71599;49.892;18.914;2024-01-10T00:59:08;100450.34;;;-16.67;66.00
82035;BME280;71599;49.892;18.914;2024-01-10T01:04:08;100433.75;;;-16.76;66.58
82035;BME280;71599;49.892;18.914;2024-01-10T01:09:11;100427.25;;;-16.82;66.92
82035;BME280;71599;49.892;18.914;2024-01-10T01:14:12;100429.50;;;-16.87;67.83
82035;BME280;71599;49.892;18.914;2024-01-10T01:19:13;100426.56;;;-16.74;68.39
82035;BME280;71599;49.892;18.914;2024-01-10T01:24:15;100428.56;;;-16.58;67.80
82035;BME280;71599;49.892;18.914;2024-01-10T01:29:16;100442.06;;;-16.63;67.41
82035;BME280;71599;49.892;18.914;2024-01-10T01:34:17;100440.72;;;-16.67;67.01
82035;BME280;71599;49.892;18.914;2024-01-10T01:39:20;100449.00;;;-16.71;66.52
82035;BME280;71599;49.892;18.914;2024-01-10T01:44:21;100446.06;;;-16.68;66.51
82035;BME280;71599;49.892;18.914;2024-01-10T01:49:22;100439.44;;;-16.63;67.49
82035;BME280;71599;49.892;18.914;2024-01-10T01:54:24;100429.97;;;-16.64;67.06
82035;BME280;71599;49.892;18.914;2024-01-10T01:59:26;100428.00;;;-16.62;67.08
82035;BME280;71599;49.892;18.914;2024-01-10T02:04:28;100433.97;;;-17.06;67.41
82035;BME280;71599;49.892;18.914;2024-01-10T02:09:31;100441.81;;;-17.06;67.84
82035;BME280;71599;49.892;18.914;2024-01-10T02:14:32;100438.72;;;-16.92;67.74
82035;BME280;71599;49.892;18.914;2024-01-10T02:19:33;100434.75;;;-16.96;67.21
82035;BME280;71599;49.892;18.914;2024-01-10T02:24:36;100442.75;;;-16.98;67.32
82035;BME280;71599;49.892;18.914;2024-01-10T02:29:38;100433.94;;;-16.97;67.52
82035;BME280;71599;49.892;18.914;2024-01-10T02:34:39;100425.38;;;-16.89;67.19
82035;BME280;71599;49.892;18.914;2024-01-10T02:39:40;100420.28;;;-16.91;67.57
82035;BME280;71599;49.892;18.914;2024-01-10T02:44:42;100409.13;;;-16.93;67.63
82035;BME280;71599;49.892;18.914;2024-01-10T02:49:43;100415.44;;;-16.86;66.97
82035;BME280;71599;49.892;18.914;2024-01-10T02:54:44;100411.91;;;-16.94;65.99
82035;BME280;71599;49.892;18.914;2024-01-10T02:59:47;100398.53;;;-16.91;66.12
82035;BME280;71599;49.892;18.914;2024-01-10T03:04:48;100401.28;;;-16.93;65.61
82035;BME280;71599;49.892;18.914;2024-01-10T03:09:49;100404.59;;;-16.91;65.79
82035;BME280;71599;49.892;18.914;2024-01-10T03:14:51;100409.44;;;-16.96;66.40
82035;BME280;71599;49.892;18.914;2024-01-10T03:19:52;100412.72;;;-16.94;66.48
82035;BME280;71599;49.892;18.914;2024-01-10T03:24:53;100398.69;;;-16.93;65.65
82035;BME280;71599;49.892;18.914;2024-01-10T03:29:55;100393.03;;;-16.88;65.90
82035;BME280;71599;49.892;18.914;2024-01-10T03:34:56;100380.00;;;-16.98;65.71
82035;BME280;71599;49.892;18.914;2024-01-10T03:39:57;100398.28;;;-16.98;65.05
82035;BME280;71599;49.892;18.914;2024-01-10T03:45:00;100383.56;;;-16.99;65.05
82035;BME280;71599;49.892;18.914;2024-01-10T03:50:01;100388.28;;;-17.02;65.16
82035;BME280;71599;49.892;18.914;2024-01-10T03:55:02;100373.28;;;-17.00;65.64
82035;BME280;71599;49.892;18.914;2024-01-10T04:00:13;100395.81;;;-16.99;64.98
82035;BME280;71599;49.892;18.914;2024-01-10T04:05:14;100382.03;;;-16.92;64.69
82035;BME280;71599;49.892;18.914;2024-01-10T04:10:15;100380.38;;;-16.93;64.76
82035;BME280;71599;49.892;18.914;2024-01-10T04:15:17;100388.97;;;-17.10;65.10
82035;BME280;71599;49.892;18.914;2024-01-10T04:20:18;100390.88;;;-17.02;65.55
82035;BME280;71599;49.892;18.914;2024-01-10T04:25:19;100386.72;;;-16.95;65.54
82035;BME280;71599;49.892;18.914;2024-01-10T04:30:22;100385.34;;;-16.90;65.59
82035;BME280;71599;49.892;18.914;2024-01-10T04:35:23;100390.84;;;-16.93;65.27
82035;BME280;71599;49.892;18.914;2024-01-10T04:40:24;100391.72;;;-17.02;64.99
82035;BME280;71599;49.892;18.914;2024-01-10T04:45:26;100380.06;;;-17.17;65.56
82035;BME280;71599;49.892;18.914;2024-01-10T04:50:27;100384.75;;;-17.20;65.65
82035;BME280;71599;49.892;18.914;2024-01-10T04:55:28;100384.97;;;-17.04;65.57
82035;BME280;71599;49.892;18.914;2024-01-10T05:00:30;100379.34;;;-17.09;64.91
82035;BME280;71599;49.892;18.914;2024-01-10T05:05:31;100379.72;;;-17.04;65.38
82035;BME280;71599;49.892;18.914;2024-01-10T05:10:32;100377.25;;;-17.06;64.57
82035;BME280;71599;49.892;18.914;2024-01-10T05:15:35;100375.06;;;-17.10;64.76
82035;BME280;71599;49.892;18.914;2024-01-10T05:20:36;100384.25;;;-16.97;65.29
82035;BME280;71599;49.892;18.914;2024-01-10T05:25:37;100379.13;;;-16.89;65.08
82035;BME280;71599;49.892;18.914;2024-01-10T05:30:39;100376.78;;;-16.82;65.60
82035;BME280;71599;49.892;18.914;2024-01-10T05:35:40;100376.09;;;-16.84;65.44
82035;BME280;71599;49.892;18.914;2024-01-10T05:40:41;100367.53;;;-16.86;65.61
82035;BME280;71599;49.892;18.914;2024-01-10T05:45:44;100369.88;;;-16.83;64.91
82035;BME280;71599;49.892;18.914;2024-01-10T05:50:45;100363.53;;;-16.81;65.34
82035;BME280;71599;49.892;18.914;2024-01-10T05:55:46;100362.63;;;-16.89;65.60
82035;BME280;71599;49.892;18.914;2024-01-10T06:00:48;100363.69;;;-16.82;64.85
82035;BME280;71599;49.892;18.914;2024-01-10T06:05:49;100356.13;;;-16.85;64.96
82035;BME280;71599;49.892;18.914;2024-01-10T06:10:50;100362.03;;;-16.83;65.20
82035;BME280;71599;49.892;18.914;2024-01-10T06:15:52;100355.53;;;-16.79;65.85
82035;BME280;71599;49.892;18.914;2024-01-10T06:20:53;100356.22;;;-16.77;65.40
82035;BME280;71599;49.892;18.914;2024-01-10T06:25:54;100361.16;;;-16.74;65.07
82035;BME280;71599;49.892;18.914;2024-01-10T06:30:57;100366.13;;;-16.71;65.52
82035;BME280;71599;49.892;18.914;2024-01-10T06:35:57;100374.03;;;-16.90;65.21
82035;BME280;71599;49.892;18.914;2024-01-10T06:40:58;100376.97;;;-17.03;66.21
82035;BME280;71599;49.892;18.914;2024-01-10T06:46:01;100385.47;;;-16.91;66.79
82035;BME280;71599;49.892;18.914;2024-01-10T06:51:02;100383.34;;;-16.78;66.66
82035;BME280;71599;49.892;18.914;2024-01-10T06:56:03;100384.25;;;-16.69;66.76
82035;BME280;71599;49.892;18.914;2024-01-10T07:01:11;100388.19;;;-16.56;66.27
82035;BME280;71599;49.892;18.914;2024-01-10T07:06:12;100395.50;;;-16.87;66.09
82035;BME280;71599;49.892;18.914;2024-01-10T07:11:13;100394.56;;;-16.95;67.40
82035;BME280;71599;49.892;18.914;2024-01-10T07:16:15;100394.09;;;-16.54;66.72
82035;BME280;71599;49.892;18.914;2024-01-10T07:21:16;100396.97;;;-16.29;66.02
82035;BME280;71599;49.892;18.914;2024-01-10T07:26:17;100393.69;;;-15.96;67.92
82035;BME280;71599;49.892;18.914;2024-01-10T07:31:19;100396.81;;;-15.75;67.11
82035;BME280;71599;49.892;18.914;2024-01-10T07:36:20;100407.00;;;-15.54;66.62
82035;BME280;71599;49.892;18.914;2024-01-10T07:41:21;100401.22;;;-15.14;67.00
82035;BME280;71599;49.892;18.914;2024-01-10T07:46:24;100392.78;;;-14.92;67.50
82035;BME280;71599;49.892;18.914;2024-01-10T07:51:25;100394.38;;;-14.65;66.89
82035;BME280;71599;49.892;18.914;2024-01-10T07:56:26;100386.13;;;-14.36;67.51
82035;BME280;71599;49.892;18.914;2024-01-10T08:01:28;100369.63;;;-14.04;65.93
82035;BME280;71599;49.892;18.914;2024-01-10T08:06:29;100370.44;;;-13.71;65.34
82035;BME280;71599;49.892;18.914;2024-01-10T08:11:30;100365.16;;;-13.39;64.96
82035;BME280;71599;49.892;18.914;2024-01-10T08:16:32;100356.22;;;-13.14;64.24
82035;BME280;71599;49.892;18.914;2024-01-10T08:21:33;100354.50;;;-12.82;64.13
82035;BME280;71599;49.892;18.914;2024-01-10T08:26:34;100344.66;;;-12.49;62.89
82035;BME280;71599;49.892;18.914;2024-01-10T08:31:36;100333.44;;;-12.20;63.50
82035;BME280;71599;49.892;18.914;2024-01-10T08:36:37;100338.03;;;-12.00;61.99
82035;BME280;71599;49.892;18.914;2024-01-10T08:41:38;100341.69;;;-11.78;62.00
82035;BME280;71599;49.892;18.914;2024-01-10T08:46:41;100337.31;;;-11.48;62.44
82035;BME280;71599;49.892;18.914;2024-01-10T08:51:42;100345.28;;;-11.04;62.49
82035;BME280;71599;49.892;18.914;2024-01-10T08:56:43;100339.09;;;-10.96;61.75
82035;BME280;71599;49.892;18.914;2024-01-10T09:01:45;100347.00;;;-10.67;61.65
82035;BME280;71599;49.892;18.914;2024-01-10T09:06:46;100346.69;;;-10.22;62.94
82035;BME280;71599;49.892;18.914;2024-01-10T09:11:47;100340.94;;;-9.89;63.09
82035;BME280;71599;49.892;18.914;2024-01-10T09:16:49;100335.34;;;-10.01;63.08
82035;BME280;71599;49.892;18.914;2024-01-10T09:21:50;100322.63;;;-9.91;62.88
82035;BME280;71599;49.892;18.914;2024-01-10T09:26:51;100330.13;;;-9.94;61.46
82035;BME280;71599;49.892;18.914;2024-01-10T09:31:54;100331.03;;;-9.59;61.64
82035;BME280;71599;49.892;18.914;2024-01-10T09:36:55;100330.16;;;-9.66;61.32
82035;BME280;71599;49.892;18.914;2024-01-10T09:41:58;100325.06;;;-9.89;61.33
82035;BME280;71599;49.892;18.914;2024-01-10T09:47:00;100311.72;;;-9.32;62.64
82035;BME280;71599;49.892;18.914;2024-01-10T09:52:04;100316.56;;;-9.08;62.12
82035;BME280;71599;49.892;18.914;2024-01-10T09:57:05;100304.66;;;-8.90;62.80
82035;BME280;71599;49.892;18.914;2024-01-10T10:02:08;100304.88;;;-8.85;62.29
82035;BME280;71599;49.892;18.914;2024-01-10T10:07:09;100297.44;;;-8.62;62.38
82035;BME280;71599;49.892;18.914;2024-01-10T10:12:10;100290.19;;;-8.34;62.22
82035;BME280;71599;49.892;18.914;2024-01-10T10:17:16;100282.94;;;-7.99;61.44
82035;BME280;71599;49.892;18.914;2024-01-10T10:22:17;100287.38;;;-7.66;60.46
82035;BME280;71599;49.892;18.914;2024-01-10T10:27:18;100271.88;;;-7.76;59.09
82035;BME280;71599;49.892;18.914;2024-01-10T10:32:21;100272.50;;;-7.74;59.45
82035;BME280;71599;49.892;18.914;2024-01-10T10:37:22;100289.38;;;-7.09;60.44
82035;BME280;71599;49.892;18.914;2024-01-10T10:42:23;100275.59;;;-6.73;59.94
82035;BME280;71599;49.892;18.914;2024-01-10T10:47:29;100277.38;;;-6.61;58.46
82035;BME280;71599;49.892;18.914;2024-01-10T10:52:32;100273.91;;;-6.61;58.47
82035;BME280;71599;49.892;18.914;2024-01-10T10:57:33;100267.09;;;-6.51;61.04
82035;BME280;71599;49.892;18.914;2024-01-10T11:02:37;100270.13;;;-6.40;60.67
82035;BME280;71599;49.892;18.914;2024-01-10T11:07:38;100253.03;;;-6.26;59.70
82035;BME280;71599;49.892;18.914;2024-01-10T11:12:53;100244.34;;;-6.40;58.89
82035;BME280;71599;49.892;18.914;2024-01-10T11:18:06;100246.31;;;-6.29;59.56
82035;BME280;71599;49.892;18.914;2024-01-10T11:23:35;100219.31;;;-6.32;60.15
82035;BME280;71599;49.892;18.914;2024-01-10T11:28:38;100229.50;;;-6.23;59.31
82035;BME280;71599;49.892;18.914;2024-01-10T11:33:42;100236.72;;;-5.98;59.77
82035;BME280;71599;49.892;18.914;2024-01-10T11:38:53;100232.94;;;-5.84;60.05
82035;BME280;71599;49.892;18.914;2024-01-10T11:49:53;100223.94;;;-5.04;60.86
82035;BME280;71599;49.892;18.914;2024-01-10T11:54:55;100228.44;;;-5.04;61.87
82035;BME280;71599;49.892;18.914;2024-01-10T11:59:56;100229.72;;;-5.07;60.09
82035;BME280;71599;49.892;18.914;2024-01-10T12:04:58;100231.34;;;-4.88;60.86
82035;BME280;71599;49.892;18.914;2024-01-10T12:09:59;100214.59;;;-4.76;58.83
82035;BME280;71599;49.892;18.914;2024-01-10T12:15:00;100215.72;;;-4.54;58.20
82035;BME280;71599;49.892;18.914;2024-01-10T12:20:04;100203.09;;;-4.17;58.01
82035;BME280;71599;49.892;18.914;2024-01-10T12:25:05;100200.34;;;-4.11;56.11
82035;BME280;71599;49.892;18.914;2024-01-10T12:30:07;100208.84;;;-4.02;55.73
82035;BME280;71599;49.892;18.914;2024-01-10T12:35:10;100202.22;;;-3.76;55.72
82035;BME280;71599;49.892;18.914;2024-01-10T12:40:11;100208.06;;;-3.68;54.57
82035;BME280;71599;49.892;18.914;2024-01-10T12:45:30;100198.78;;;-3.65;54.84
82035;BME280;71599;49.892;18.914;2024-01-10T12:50:32;100200.47;;;-3.82;55.69
82035;BME280;71599;49.892;18.914;2024-01-10T12:55:33;100195.50;;;-3.90;57.31
82035;BME280;71599;49.892;18.914;2024-01-10T13:00:34;100196.78;;;-3.81;56.70
82035;BME280;71599;49.892;18.914;2024-01-10T13:05:36;100188.53;;;-3.80;57.15
82035;BME280;71599;49.892;18.914;2024-01-10T13:10:37;100188.53;;;-3.80;56.42
82035;BME280;71599;49.892;18.914;2024-01-10T13:15:39;100180.41;;;-3.96;57.41
82035;BME280;71599;49.892;18.914;2024-01-10T13:20:41;100175.63;;;-3.94;57.81
82035;BME280;71599;49.892;18.914;2024-01-10T13:25:42;100174.56;;;-3.93;57.66
82035;BME280;71599;49.892;18.914;2024-01-10T13:30:43;100170.88;;;-3.92;57.78
82035;BME280;71599;49.892;18.914;2024-01-10T13:35:45;100177.63;;;-3.90;58.15
82035;BME280;71599;49.892;18.914;2024-01-10T13:40:46;100163.44;;;-4.02;57.38
82035;BME280;71599;49.892;18.914;2024-01-10T13:45:48;100156.78;;;-4.23;58.12
82035;BME280;71599;49.892;18.914;2024-01-10T13:50:50;100143.06;;;-4.38;58.49
82035;BME280;71599;49.892;18.914;2024-01-10T13:55:51;100164.34;;;-4.50;59.19
82035;BME280;71599;49.892;18.914;2024-01-10T14:00:52;100150.84;;;-4.66;60.18
82035;BME280;71599;49.892;18.914;2024-01-10T14:05:54;100156.91;;;-4.89;60.87
82035;BME280;71599;49.892;18.914;2024-01-10T14:10:55;100152.69;;;-4.97;60.99
82035;BME280;71599;49.892;18.914;2024-01-10T14:15:56;100152.09;;;-5.17;62.11
82035;BME280;71599;49.892;18.914;2024-01-10T14:20:59;100150.66;;;-5.31;62.05
82035;BME280;71599;49.892;18.914;2024-01-10T14:26:00;100155.22;;;-5.38;62.84
82035;BME280;71599;49.892;18.914;2024-01-10T14:31:01;100144.22;;;-5.42;63.58
82035;BME280;71599;49.892;18.914;2024-01-10T14:36:04;100135.69;;;-5.50;63.42
82035;BME280;71599;49.892;18.914;2024-01-10T14:41:06;100142.78;;;-5.62;63.85
82035;BME280;71599;49.892;18.914;2024-01-10T14:46:07;100124.44;;;-5.71;65.09
82035;BME280;71599;49.892;18.914;2024-01-10T14:51:09;100122.66;;;-6.01;65.40
82035;BME280;71599;49.892;18.914;2024-01-10T14:56:10;100121.28;;;-6.04;65.87
82035;BME280;71599;49.892;18.914;2024-01-10T15:01:11;100124.16;;;-6.30;67.24
82035;BME280;71599;49.892;18.914;2024-01-10T15:06:14;100139.63;;;-6.45;67.47
82035;BME280;71599;49.892;18.914;2024-01-10T15:11:15;100143.19;;;-6.58;68.05
82035;BME280;71599;49.892;18.914;2024-01-10T15:16:16;100151.69;;;-6.81;68.81
82035;BME280;71599;49.892;18.914;2024-01-10T15:21:18;100146.19;;;-6.86;70.41
82035;BME280;71599;49.892;18.914;2024-01-10T15:26:19;100143.38;;;-6.91;71.14
82035;BME280;71599;49.892;18.914;2024-01-10T15:31:20;100143.59;;;-6.99;71.87
82035;BME280;71599;49.892;18.914;2024-01-10T15:36:23;100134.44;;;-7.03;71.08
82035;BME280;71599;49.892;18.914;2024-01-10T15:41:24;100138.97;;;-7.10;70.77
82035;BME280;71599;49.892;18.914;2024-01-10T15:46:25;100148.63;;;-7.22;70.73
82035;BME280;71599;49.892;18.914;2024-01-10T15:51:27;100140.31;;;-7.39;72.26
82035;BME280;71599;49.892;18.914;2024-01-10T15:56:28;100138.31;;;-7.57;73.40
82035;BME280;71599;49.892;18.914;2024-01-10T16:06:43;100131.41;;;-7.78;74.00
82035;BME280;71599;49.892;18.914;2024-01-10T16:11:45;100118.81;;;-7.95;73.56
82035;BME280;71599;49.892;18.914;2024-01-10T16:16:46;100132.50;;;-7.98;73.98
82035;BME280;71599;49.892;18.914;2024-01-10T16:21:56;100084.97;;;-8.46;73.89
82035;BME280;71599;49.892;18.914;2024-01-10T16:26:57;100125.38;;;-8.31;73.40
82035;BME280;71599;49.892;18.914;2024-01-10T16:31:59;100131.69;;;-8.45;73.90
82035;BME280;71599;49.892;18.914;2024-01-10T16:37:01;100121.28;;;-8.66;74.39
82035;BME280;71599;49.892;18.914;2024-01-10T16:42:04;100128.78;;;-8.70;74.25
82035;BME280;71599;49.892;18.914;2024-01-10T16:47:06;100074.06;;;-9.23;74.22
82035;BME280;71599;49.892;18.914;2024-01-10T16:52:09;100112.22;;;-9.05;74.35
82035;BME280;71599;49.892;18.914;2024-01-10T16:57:10;100127.72;;;-9.02;74.67
82035;BME280;71599;49.892;18.914;2024-01-10T17:02:11;100113.22;;;-9.12;73.76
82035;BME280;71599;49.892;18.914;2024-01-10T17:07:14;100115.59;;;-9.30;72.77
82035;BME280;71599;49.892;18.914;2024-01-10T17:12:15;100109.44;;;-9.38;73.55
82035;BME280;71599;49.892;18.914;2024-01-10T17:17:16;100113.91;;;-9.45;74.35
82035;BME280;71599;49.892;18.914;2024-01-10T17:22:19;100096.16;;;-9.57;74.55
82035;BME280;71599;49.892;18.914;2024-01-10T17:27:20;100092.47;;;-9.63;75.33
82035;BME280;71599;49.892;18.914;2024-01-10T17:32:21;100123.03;;;-9.54;75.81
82035;BME280;71599;49.892;18.914;2024-01-10T17:37:24;100118.47;;;-9.66;76.99
82035;BME280;71599;49.892;18.914;2024-01-10T17:42:25;100111.31;;;-9.72;77.61
82035;BME280;71599;49.892;18.914;2024-01-10T17:47:26;100090.09;;;-9.86;76.60
82035;BME280;71599;49.892;18.914;2024-01-10T17:52:29;100062.25;;;-10.16;75.36
82035;BME280;71599;49.892;18.914;2024-01-10T17:57:30;100118.31;;;-9.93;76.32
82035;BME280;71599;49.892;18.914;2024-01-10T18:02:31;100106.72;;;-10.26;75.43
82035;BME280;71599;49.892;18.914;2024-01-10T18:07:34;100100.53;;;-10.68;73.84
82035;BME280;71599;49.892;18.914;2024-01-10T18:12:37;100111.09;;;-10.68;73.75
82035;BME280;71599;49.892;18.914;2024-01-10T18:17:38;100105.88;;;-10.61;74.00
82035;BME280;71599;49.892;18.914;2024-01-10T18:22:40;100096.41;;;-10.70;74.90
82035;BME280;71599;49.892;18.914;2024-01-10T18:27:42;100110.50;;;-10.63;76.46
82035;BME280;71599;49.892;18.914;2024-01-10T18:32:43;100094.13;;;-10.80;76.20
82035;BME280;71599;49.892;18.914;2024-01-10T18:37:45;100099.22;;;-10.78;77.55
82035;BME280;71599;49.892;18.914;2024-01-10T18:42:46;100103.91;;;-10.74;76.50
82035;BME280;71599;49.892;18.914;2024-01-10T18:47:48;100101.09;;;-10.72;75.05
82035;BME280;71599;49.892;18.914;2024-01-10T18:52:50;100064.28;;;-10.95;74.67
82035;BME280;71599;49.892;18.914;2024-01-10T18:57:51;100078.50;;;-10.96;74.50
82035;BME280;71599;49.892;18.914;2024-01-10T19:02:52;100075.59;;;-11.01;74.64
82035;BME280;71599;49.892;18.914;2024-01-10T19:07:55;100019.94;;;-11.27;75.12
82035;BME280;71599;49.892;18.914;2024-01-10T19:12:56;100059.84;;;-10.94;76.46
82035;BME280;71599;49.892;18.914;2024-01-10T19:17:57;100059.91;;;-10.88;75.68
82035;BME280;71599;49.892;18.914;2024-01-10T19:23:00;100063.19;;;-10.86;75.69
82035;BME280;71599;49.892;18.914;2024-01-10T19:28:01;100030.94;;;-11.02;76.49
82035;BME280;71599;49.892;18.914;2024-01-10T19:33:03;100054.94;;;-10.97;77.53
82035;BME280;71599;49.892;18.914;2024-01-10T19:38:05;100032.56;;;-11.02;77.47
82035;BME280;71599;49.892;18.914;2024-01-10T19:43:06;100053.63;;;-10.87;76.11
82035;BME280;71599;49.892;18.914;2024-01-10T19:48:07;100032.25;;;-10.92;76.30
82035;BME280;71599;49.892;18.914;2024-01-10T19:53:10;100031.50;;;-10.86;75.85
82035;BME280;71599;49.892;18.914;2024-01-10T19:58:13;100040.91;;;-10.77;76.04
82035;BME280;71599;49.892;18.914;2024-01-10T20:03:14;99993.97;;;-11.02;75.58
82035;BME280;71599;49.892;18.914;2024-01-10T20:08:17;100024.56;;;-10.87;75.40
82035;BME280;71599;49.892;18.914;2024-01-10T20:13:18;100035.06;;;-10.93;73.90
82035;BME280;71599;49.892;18.914;2024-01-10T20:18:19;100028.66;;;-11.06;73.04
82035;BME280;71599;49.892;18.914;2024-01-10T20:23:22;100040.97;;;-11.13;72.82
82035;BME280;71599;49.892;18.914;2024-01-10T20:28:23;100024.69;;;-11.37;72.93
82035;BME280;71599;49.892;18.914;2024-01-10T20:33:24;100018.41;;;-11.58;74.10
82035;BME280;71599;49.892;18.914;2024-01-10T20:38:27;100055.47;;;-11.45;74.56
82035;BME280;71599;49.892;18.914;2024-01-10T20:43:28;99996.63;;;-11.81;73.43
82035;BME280;71599;49.892;18.914;2024-01-10T20:48:29;100048.03;;;-11.56;74.68
82035;BME280;71599;49.892;18.914;2024-01-10T20:53:31;100031.34;;;-11.77;77.45
82035;BME280;71599;49.892;18.914;2024-01-10T20:58:33;100025.78;;;-11.68;76.98
82035;BME280;71599;49.892;18.914;2024-01-10T21:03:34;100017.31;;;-11.63;76.41
82035;BME280;71599;49.892;18.914;2024-01-10T21:08:36;100038.03;;;-11.46;76.34
82035;BME280;71599;49.892;18.914;2024-01-10T21:13:37;100038.63;;;-11.44;75.39
82035;BME280;71599;49.892;18.914;2024-01-10T21:18:38;100024.47;;;-11.57;76.01
82035;BME280;71599;49.892;18.914;2024-01-10T21:23:46;100035.75;;;-11.49;75.82
82035;BME280;71599;49.892;18.914;2024-01-10T21:28:47;100028.91;;;-11.43;76.24
82035;BME280;71599;49.892;18.914;2024-01-10T21:33:48;100028.53;;;-11.40;74.01
82035;BME280;71599;49.892;18.914;2024-01-10T21:38:51;100040.00;;;-11.48;74.36
82035;BME280;71599;49.892;18.914;2024-01-10T21:43:52;100042.56;;;-11.54;73.32
82035;BME280;71599;49.892;18.914;2024-01-10T21:48:53;100016.13;;;-11.61;72.84
82035;BME280;71599;49.892;18.914;2024-01-10T21:53:56;100029.22;;;-11.53;72.89
82035;BME280;71599;49.892;18.914;2024-01-10T21:58:57;100029.66;;;-11.49;73.43
82035;BME280;71599;49.892;18.914;2024-01-10T22:03:58;100033.75;;;-11.47;73.96
82035;BME280;71599;49.892;18.914;2024-01-10T22:09:00;100037.22;;;-11.61;73.60
82035;BME280;71599;49.892;18.914;2024-01-10T22:14:02;100055.25;;;-11.79;72.39
82035;BME280;71599;49.892;18.914;2024-01-10T22:19:03;100058.00;;;-11.87;72.90
82035;BME280;71599;49.892;18.914;2024-01-10T22:24:07;100019.38;;;-11.95;73.45
82035;BME280;71599;49.892;18.914;2024-01-10T22:29:08;100038.53;;;-11.86;73.00
82035;BME280;71599;49.892;18.914;2024-01-10T22:34:09;100038.91;;;-11.89;73.16
82035;BME280;71599;49.892;18.914;2024-01-10T22:39:15;100004.47;;;-12.02;73.25
82035;BME280;71599;49.892;18.914;2024-01-10T22:44:16;100003.22;;;-12.06;72.46
82035;BME280;71599;49.892;18.914;2024-01-10T22:49:17;99975.16;;;-12.14;73.46
82035;BME280;71599;49.892;18.914;2024-01-10T22:54:19;100024.53;;;-11.72;75.00
82035;BME280;71599;49.892;18.914;2024-01-10T22:59:20;100020.97;;;-11.79;75.58
82035;BME280;71599;49.892;18.914;2024-01-10T23:04:21;100005.13;;;-12.00;75.35
82035;BME280;71599;49.892;18.914;2024-01-10T23:09:24;100019.41;;;-12.24;73.27
82035;BME280;71599;49.892;18.914;2024-01-10T23:14:25;100011.72;;;-12.25;72.92
82035;BME280;71599;49.892;18.914;2024-01-10T23:19:26;100005.63;;;-12.26;73.41
82035;BME280;71599;49.892;18.914;2024-01-10T23:24:28;100002.44;;;-12.21;73.96
82035;BME280;71599;49.892;18.914;2024-01-10T23:29:29;99972.28;;;-12.34;74.73
82035;BME280;71599;49.892;18.914;2024-01-10T23:34:31;99967.75;;;-12.25;73.64
82035;BME280;71599;49.892;18.914;2024-01-10T23:39:33;99970.47;;;-12.18;73.01
82035;BME280;71599;49.892;18.914;2024-01-10T23:44:34;99964.78;;;-12.15;72.00
82035;BME280;71599;49.892;18.914;2024-01-10T23:49:35;99974.09;;;-12.34;71.49
82035;BME280;71599;49.892;18.914;2024-01-10T23:54:40;99902.63;;;-12.60;71.40
82035;BME280;71599;49.892;18.914;2024-01-10T23:59:41;99917.88;;;-12.41;71.78
